Time;durP1;ratioP1;P1;durP2;ratioP2;P2;SDS_P1;SDS_P2;PMS_P1;PMS_P2;Temp;Humidity;BMP_temperature;BMP_pressure;BME280_temperature;BME280_humidity;BME280_pressure;Samples;Min_cycle;Max_cycle;Signal;HPM_P1;HPM_P2
2021/01/30 00:01:11;;;;;;;;;;;2.60;99.90;;;;;;5140774;27;19998;-84
2021/01/30 00:03:41;;;;;;;;;;;2.60;99.90;;;;;;5159132;27;19907;-84
2021/01/30 00:06:21;;;;;;;;;;;2.60;99.90;;;;;;5158384;27;20344;-86
2021/01/30 00:08:50;;;;;;;;;;;2.60;99.90;;;;;;5140256;27;19910;-85
2021/01/30 00:11:21;;;;;;;;;;;2.60;99.90;;;;;;5139691;27;20377;-85
2021/01/30 00:13:48;;;;;;;;;;;2.50;99.90;;;;;;5136042;27;19911;-85
2021/01/30 00:16:14;;;;;;;;;;;2.50;99.90;;;;;;5158670;27;19907;-85
2021/01/30 00:18:46;;;;;;;;;;;2.50;99.90;;;;;;5139499;27;19998;-84
2021/01/30 00:21:14;;;;;;;;;;;2.50;99.90;;;;;;5139836;27;19914;-84
2021/01/30 00:23:50;;;;;;;;;;;2.50;99.90;;;;;;5140192;27;19928;-83
2021/01/30 00:26:16;;;;;;;;;;;2.50;99.90;;;;;;5140071;27;19908;-85
2021/01/30 00:28:41;;;;;;;;;;;2.50;99.90;;;;;;5141090;27;19914;-85
2021/01/30 00:31:17;;;;;;;;;;;2.50;99.90;;;;;;5158598;27;19919;-84
2021/01/30 00:33:46;;;;;;;;;;;2.40;99.90;;;;;;5111937;28;20011;-85
2021/01/30 00:36:24;;;;;;;;;;;2.40;99.90;;;;;;5113037;28;19912;-84
2021/01/30 00:39:01;;;;;;;;;;;2.40;99.90;;;;;;5097848;28;19994;-85
2021/01/30 00:41:28;;;;;;;;;;;2.40;99.90;;;;;;5098119;28;19908;-85
2021/01/30 00:44:03;;;;;;;;;;;2.40;99.90;;;;;;5115330;28;19998;-85
2021/01/30 00:46:33;;;;;;;;;;;2.30;99.90;;;;;;5115140;28;20325;-84
2021/01/30 00:49:01;;;;;;;;;;;2.30;99.90;;;;;;5098124;28;20404;-84
2021/01/30 00:51:42;;;;;;;;;;;2.20;99.90;;;;;;5064326;28;20330;-85
2021/01/30 00:54:10;;;;;;;;;;;2.20;99.90;;;;;;5098032;28;19912;-84
2021/01/30 00:56:39;;;;;;;;;;;2.20;99.90;;;;;;5097900;28;19914;-84
2021/01/30 00:59:10;;;;;;;;;;;2.20;99.90;;;;;;5097772;28;19908;-85
2021/01/30 01:01:37;;;;;;;;;;;2.20;99.90;;;;;;5097424;28;19908;-84
2021/01/30 01:04:07;;;;;;;;;;;2.20;99.90;;;;;;5102519;27;20248;-84
2021/01/30 01:06:38;;;;;;;;;;;2.20;99.90;;;;;;5056462;28;20278;-84
2021/01/30 01:09:07;;;;;;;;;;;2.10;99.90;;;;;;5057310;28;19912;-84
2021/01/30 01:11:35;;;;;;;;;;;2.10;99.90;;;;;;5073685;28;20436;-85
2021/01/30 01:14:03;;;;;;;;;;;2.10;99.90;;;;;;5074099;28;19908;-84
2021/01/30 01:16:42;;;;;;;;;;;2.10;99.90;;;;;;5070441;28;19908;-84
2021/01/30 01:19:20;;;;;;;;;;;2.00;99.90;;;;;;5073459;28;20404;-84
2021/01/30 01:21:50;;;;;;;;;;;2.00;99.90;;;;;;5057257;28;19908;-84
2021/01/30 01:24:22;;;;;;;;;;;1.90;99.90;;;;;;5070921;28;19912;-84
2021/01/30 01:26:52;;;;;;;;;;;1.90;99.90;;;;;;5073769;28;20414;-84
2021/01/30 01:29:19;;;;;;;;;;;1.80;99.90;;;;;;5071083;28;19924;-85
2021/01/30 01:31:52;;;;;;;;;;;1.80;99.90;;;;;;5073202;28;20373;-85
2021/01/30 01:34:33;;;;;;;;;;;1.80;99.90;;;;;;5073960;28;20591;-85
2021/01/30 01:37:18;;;;;;;;;;;1.80;99.90;;;;;;5108515;27;20365;-84
2021/01/30 01:39:49;;;;;;;;;;;1.70;99.90;;;;;;5157582;27;19915;-85
2021/01/30 01:42:25;;;;;;;;;;;1.70;99.90;;;;;;5138950;27;19907;-85
2021/01/30 01:45:00;;;;;;;;;;;1.60;99.90;;;;;;5139038;27;19907;-84
2021/01/30 01:47:31;;;;;;;;;;;1.60;99.90;;;;;;5139405;27;20007;-85
2021/01/30 01:50:11;;;;;;;;;;;1.60;99.90;;;;;;5138124;27;19981;-84
2021/01/30 01:52:41;;;;;;;;;;;1.50;99.90;;;;;;5139131;27;19919;-84
2021/01/30 01:55:20;;;;;;;;;;;1.50;99.90;;;;;;5138640;27;19952;-84
2021/01/30 01:57:53;;;;;;;;;;;1.50;99.90;;;;;;5157099;27;19952;-84
2021/01/30 02:00:23;;;;;;;;;;;1.50;99.90;;;;;;5135585;27;19912;-85
2021/01/30 02:03:00;;;;;;;;;;;1.50;99.90;;;;;;5135354;27;19911;-84
2021/01/30 02:05:31;;;;;;;;;;;1.50;99.90;;;;;;5138431;27;19908;-84
2021/01/30 02:08:05;;;;;;;;;;;1.50;99.90;;;;;;5138413;27;19923;-84
2021/01/30 02:10:35;;;;;;;;;;;1.50;99.90;;;;;;5157863;27;19907;-84
2021/01/30 02:13:10;;;;;;;;;;;1.50;99.90;;;;;;5138084;27;19911;-84
2021/01/30 02:15:42;;;;;;;;;;;1.40;99.90;;;;;;5138463;27;19957;-85
2021/01/30 02:18:17;;;;;;;;;;;1.40;99.90;;;;;;5138388;27;19907;-84
2021/01/30 02:20:56;;;;;;;;;;;1.40;99.90;;;;;;5138177;27;19908;-84
2021/01/30 02:23:33;;;;;;;;;;;1.40;99.90;;;;;;5156815;27;19914;-84
2021/01/30 02:26:17;;;;;;;;;;;1.40;99.90;;;;;;5138199;27;19911;-84
2021/01/30 02:29:10;;;;;;;;;;;1.40;99.90;;;;;;5137918;27;19914;-86
2021/01/30 02:31:49;;;;;;;;;;;1.40;99.90;;;;;;5137494;27;19919;-85
2021/01/30 02:34:24;;;;;;;;;;;1.40;99.90;;;;;;5156410;27;20363;-85
2021/01/30 02:37:18;;;;;;;;;;;1.30;99.90;;;;;;5137686;27;19915;-84
2021/01/30 02:40:13;;;;;;;;;;;1.30;99.90;;;;;;5133915;27;19950;-85
2021/01/30 02:42:49;;;;;;;;;;;1.30;99.90;;;;;;5156075;27;19979;-84
2021/01/30 02:45:29;;;;;;;;;;;1.30;99.90;;;;;;5156280;27;20371;-85
2021/01/30 02:48:04;;;;;;;;;;;1.30;99.90;;;;;;5135912;27;19907;-85
2021/01/30 02:50:35;;;;;;;;;;;1.30;99.90;;;;;;5137923;27;19907;-86
2021/01/30 02:53:10;;;;;;;;;;;1.30;99.90;;;;;;5137370;27;20333;-85
2021/01/30 02:55:39;;;;;;;;;;;1.30;99.90;;;;;;5138126;27;19907;-85
2021/01/30 02:58:09;;;;;;;;;;;1.30;99.90;;;;;;5157195;27;19908;-85
2021/01/30 03:00:35;;;;;;;;;;;1.30;99.90;;;;;;5155946;27;20287;-85
2021/01/30 03:03:08;;;;;;;;;;;1.30;99.90;;;;;;5140170;27;20267;-84
2021/01/30 03:05:36;;;;;;;;;;;1.30;99.90;;;;;;5142080;27;20473;-84
2021/01/30 03:08:11;;;;;;;;;;;1.30;99.90;;;;;;5136796;27;19919;-85
2021/01/30 03:11:02;;;;;;;;;;;1.30;99.90;;;;;;5142185;27;20005;-83
2021/01/30 03:13:55;;;;;;;;;;;1.30;99.90;;;;;;5141935;27;20368;-84
2021/01/30 03:16:23;;;;;;;;;;;1.40;99.90;;;;;;5129909;27;19907;-85
2021/01/30 03:18:56;;;;;;;;;;;1.40;99.90;;;;;;5155479;27;20416;-84
2021/01/30 03:21:36;;;;;;;;;;;1.40;99.90;;;;;;5160206;27;19963;-85
2021/01/30 03:24:03;;;;;;;;;;;1.40;99.90;;;;;;5141449;27;19907;-84
2021/01/30 03:26:39;;;;;;;;;;;1.40;99.90;;;;;;5160388;27;20355;-84
2021/01/30 03:29:12;;;;;;;;;;;1.30;99.90;;;;;;5141434;27;19911;-84
2021/01/30 03:31:42;;;;;;;;;;;1.30;99.90;;;;;;5141273;27;19918;-84
2021/01/30 03:34:19;;;;;;;;;;;1.30;99.90;;;;;;5159490;27;19907;-84
2021/01/30 03:36:54;;;;;;;;;;;1.30;99.90;;;;;;5139376;27;19907;-85
2021/01/30 03:39:25;;;;;;;;;;;1.30;99.90;;;;;;5138654;27;19908;-84
2021/01/30 03:41:53;;;;;;;;;;;1.30;99.90;;;;;;5137438;27;19911;-84
2021/01/30 03:44:22;;;;;;;;;;;1.30;99.90;;;;;;5136118;27;20360;-84
2021/01/30 03:46:53;;;;;;;;;;;1.20;99.90;;;;;;5136371;27;19934;-85
2021/01/30 03:49:21;;;;;;;;;;;1.20;99.90;;;;;;5136621;27;19911;-84
2021/01/30 03:51:57;;;;;;;;;;;1.20;99.90;;;;;;5142278;27;19919;-84
2021/01/30 03:54:29;;;;;;;;;;;1.20;99.90;;;;;;5140596;27;19908;-85
2021/01/30 03:57:00;;;;;;;;;;;1.20;99.90;;;;;;5141118;27;19907;-84
2021/01/30 03:59:28;;;;;;;;;;;1.20;99.90;;;;;;5159788;27;20006;-85
2021/01/30 04:02:00;;;;;;;;;;;1.20;99.90;;;;;;5140777;27;19914;-84
2021/01/30 04:04:32;;;;;;;;;;;1.20;99.90;;;;;;5141058;27;19960;-84
2021/01/30 04:07:10;;;;;;;;;;;1.20;99.90;;;;;;5135249;27;19919;-85
2021/01/30 04:09:35;;;;;;;;;;;1.20;99.90;;;;;;5159167;27;19986;-85
2021/01/30 04:12:01;;;;;;;;;;;1.20;99.90;;;;;;5140317;27;20002;-85
2021/01/30 04:14:28;;;;;;;;;;;1.20;99.90;;;;;;5159292;27;19911;-85
2021/01/30 04:16:56;;;;;;;;;;;1.20;99.90;;;;;;5140550;27;19907;-84
2021/01/30 04:19:36;;;;;;;;;;;1.10;99.90;;;;;;5140776;27;19907;-85
2021/01/30 04:22:07;;;;;;;;;;;1.10;99.90;;;;;;5140868;27;19942;-84
2021/01/30 04:24:35;;;;;;;;;;;1.10;99.90;;;;;;5136154;27;19994;-84
2021/01/30 04:27:04;;;;;;;;;;;1.10;99.90;;;;;;5140554;27;19914;-85
2021/01/30 04:29:46;;;;;;;;;;;1.10;99.90;;;;;;5159485;27;19959;-84
2021/01/30 04:32:13;;;;;;;;;;;1.00;99.90;;;;;;5140369;27;20391;-85
2021/01/30 04:34:43;;;;;;;;;;;0.90;99.90;;;;;;5140587;27;20394;-84
2021/01/30 04:37:11;;;;;;;;;;;0.90;99.90;;;;;;5140355;27;19912;-85
2021/01/30 04:39:39;;;;;;;;;;;0.80;99.90;;;;;;5139872;27;19907;-85
2021/01/30 04:42:08;;;;;;;;;;;0.80;99.90;;;;;;5037479;28;19913;-85
2021/01/30 04:44:46;;;;;;;;;;;0.80;99.90;;;;;;5054932;28;19909;-85
2021/01/30 04:47:20;;;;;;;;;;;0.70;99.90;;;;;;5051279;28;19909;-84
2021/01/30 04:49:48;;;;;;;;;;;0.50;99.90;;;;;;5033233;28;19909;-84
2021/01/30 04:52:28;;;;;;;;;;;0.50;99.90;;;;;;5037159;28;20473;-84
2021/01/30 04:55:24;;;;;;;;;;;0.40;99.90;;;;;;5053892;28;19909;-85
2021/01/30 04:58:09;;;;;;;;;;;0.40;99.90;;;;;;5018654;28;19909;-85
2021/01/30 05:00:44;;;;;;;;;;;0.30;99.90;;;;;;5054239;28;20353;-85
2021/01/30 05:03:28;;;;;;;;;;;0.30;99.90;;;;;;5054549;28;19947;-83
2021/01/30 05:06:00;;;;;;;;;;;0.30;99.90;;;;;;5048154;28;19907;-84
2021/01/30 05:08:34;;;;;;;;;;;0.30;99.90;;;;;;5077888;28;19916;-85
2021/01/30 05:11:12;;;;;;;;;;;0.20;99.90;;;;;;5077796;28;19923;-85
2021/01/30 05:13:45;;;;;;;;;;;0.20;99.90;;;;;;5075693;28;20330;-84
2021/01/30 05:16:32;;;;;;;;;;;0.10;99.90;;;;;;5094316;28;20344;-85
2021/01/30 05:19:06;;;;;;;;;;;0.10;99.90;;;;;;5129832;27;19911;-85
2021/01/30 05:21:48;;;;;;;;;;;0.00;99.90;;;;;;5119114;27;19914;-84
2021/01/30 05:24:19;;;;;;;;;;;0.00;99.90;;;;;;5137675;27;20421;-84
2021/01/30 05:26:57;;;;;;;;;;;-0.10;99.90;;;;;;5139134;27;19999;-84
2021/01/30 05:29:41;;;;;;;;;;;-0.10;99.90;;;;;;5139056;27;20026;-84
2021/01/30 05:32:18;;;;;;;;;;;0.00;99.90;;;;;;5121494;27;19916;-83
2021/01/30 05:34:51;;;;;;;;;;;0.00;99.90;;;;;;5122326;27;19914;-85
2021/01/30 05:37:29;;;;;;;;;;;0.10;99.90;;;;;;5120782;27;19934;-84
2021/01/30 05:40:13;;;;;;;;;;;0.20;99.90;;;;;;5118451;27;19911;-84
2021/01/30 05:42:55;;;;;;;;;;;0.30;99.90;;;;;;5118066;27;19907;-85
2021/01/30 05:45:48;;;;;;;;;;;0.40;99.90;;;;;;5137459;27;19939;-85
2021/01/30 05:48:23;;;;;;;;;;;0.50;99.90;;;;;;5118100;27;20010;-84
2021/01/30 05:50:56;;;;;;;;;;;0.60;99.90;;;;;;5115548;27;20014;-84
2021/01/30 05:53:27;;;;;;;;;;;0.60;99.90;;;;;;5118412;27;19915;-85
2021/01/30 05:56:00;;;;;;;;;;;0.70;99.90;;;;;;5115333;27;19912;-85
2021/01/30 05:58:37;;;;;;;;;;;0.70;99.90;;;;;;5136310;27;19908;-84
2021/01/30 06:01:15;;;;;;;;;;;0.70;99.90;;;;;;5113616;28;19945;-84
2021/01/30 06:03:58;;;;;;;;;;;0.70;99.90;;;;;;5137051;27;19954;-85
2021/01/30 06:06:34;;;;;;;;;;;0.70;99.90;;;;;;5123140;27;20271;-84
2021/01/30 06:09:23;;;;;;;;;;;0.70;99.90;;;;;;5138518;27;19911;-84
2021/01/30 06:12:05;;;;;;;;;;;0.70;99.90;;;;;;5125427;27;19919;-85
2021/01/30 06:14:36;;;;;;;;;;;0.70;99.90;;;;;;5137388;27;19907;-84
2021/01/30 06:17:05;;;;;;;;;;;0.80;99.90;;;;;;5132580;27;19906;-84
2021/01/30 06:19:34;;;;;;;;;;;0.80;99.90;;;;;;5132794;27;20348;-85
2021/01/30 06:22:15;;;;;;;;;;;0.80;99.90;;;;;;5137914;27;19907;-85
2021/01/30 06:24:47;;;;;;;;;;;0.80;99.90;;;;;;5138054;27;19998;-85
2021/01/30 06:27:32;;;;;;;;;;;0.90;99.90;;;;;;5134895;27;19989;-85
2021/01/30 06:30:19;;;;;;;;;;;0.90;99.90;;;;;;5137462;27;20507;-86
2021/01/30 06:32:46;;;;;;;;;;;0.90;99.90;;;;;;5135658;27;20002;-85
2021/01/30 06:35:26;;;;;;;;;;;0.90;99.90;;;;;;5137959;27;19907;-85
2021/01/30 06:38:12;;;;;;;;;;;0.90;99.90;;;;;;5153654;27;19911;-86
2021/01/30 06:40:50;;;;;;;;;;;0.90;99.90;;;;;;5137891;27;19929;-85
2021/01/30 06:43:27;;;;;;;;;;;0.90;99.90;;;;;;5137789;27;19908;-85
2021/01/30 06:46:20;;;;;;;;;;;0.90;99.90;;;;;;5154517;27;19950;-86
2021/01/30 06:48:51;;;;;;;;;;;0.90;99.90;;;;;;5134661;27;19916;-86
2021/01/30 06:51:40;;;;;;;;;;;0.90;99.90;;;;;;5137659;27;19937;-85
2021/01/30 06:54:18;;;;;;;;;;;0.90;99.90;;;;;;5137759;27;19911;-85
2021/01/30 06:56:59;;;;;;;;;;;0.90;99.90;;;;;;5137584;27;19907;-85
2021/01/30 06:59:35;;;;;;;;;;;0.90;99.90;;;;;;5137172;27;19907;-85
2021/01/30 07:02:13;;;;;;;;;;;0.80;99.90;;;;;;5155742;27;20403;-85
2021/01/30 07:04:45;;;;;;;;;;;0.90;99.90;;;;;;5137339;27;19907;-85
2021/01/30 07:07:19;;;;;;;;;;;0.80;99.90;;;;;;5137065;27;19919;-85
2021/01/30 07:10:03;;;;;;;;;;;0.80;99.90;;;;;;5155905;27;19933;-85
2021/01/30 07:12:40;;;;;;;;;;;0.80;99.90;;;;;;5155394;27;19915;-85
2021/01/30 07:15:22;;;;;;;;;;;0.80;99.90;;;;;;5156593;27;20434;-85
2021/01/30 07:18:09;;;;;;;;;;;0.80;99.90;;;;;;5136789;27;19956;-85
2021/01/30 07:21:01;;;;;;;;;;;0.80;99.90;;;;;;5137311;27;20379;-85
2021/01/30 07:23:41;;;;;;;;;;;0.80;99.90;;;;;;5136916;27;19907;-85
2021/01/30 07:26:37;;;;;;;;;;;0.80;99.90;;;;;;5155390;27;19907;-85
2021/01/30 07:29:17;;;;;;;;;;;0.80;99.90;;;;;;5137054;27;19940;-84
2021/01/30 07:31:50;;;;;;;;;;;0.80;99.90;;;;;;5137033;27;19911;-85
2021/01/30 07:34:26;;;;;;;;;;;0.80;99.90;;;;;;5136865;27;19918;-84
2021/01/30 07:37:10;;;;;;;;;;;0.90;99.90;;;;;;5155862;27;20043;-85
2021/01/30 07:39:57;;;;;;;;;;;0.90;99.90;;;;;;5136719;27;19907;-85
2021/01/30 07:42:44;;;;;;;;;;;0.90;99.90;;;;;;5156070;27;19907;-85
2021/01/30 07:45:24;;;;;;;;;;;0.90;99.90;;;;;;5136828;27;19907;-85
2021/01/30 07:48:11;;;;;;;;;;;0.90;99.90;;;;;;5136770;27;19914;-85
2021/01/30 07:50:42;;;;;;;;;;;0.90;99.90;;;;;;5157909;27;19907;-85
2021/01/30 07:53:13;;;;;;;;;;;0.90;99.90;;;;;;5140307;27;19998;-84
2021/01/30 07:55:50;;;;;;;;;;;0.90;99.90;;;;;;5141122;27;20371;-85
2021/01/30 07:58:44;;;;;;;;;;;0.90;99.90;;;;;;5159226;27;19907;-85
2021/01/30 08:01:23;;;;;;;;;;;0.90;99.90;;;;;;5140374;27;20275;-85
2021/01/30 08:04:00;;;;;;;;;;;0.90;99.90;;;;;;5140281;27;20312;-86
2021/01/30 08:06:44;;;;;;;;;;;0.90;99.90;;;;;;5158712;27;19926;-84
2021/01/30 08:09:41;;;;;;;;;;;0.90;99.90;;;;;;5159149;27;19911;-85
2021/01/30 08:12:15;;;;;;;;;;;0.90;99.90;;;;;;5140081;27;20279;-85
2021/01/30 08:14:53;;;;;;;;;;;0.90;99.90;;;;;;5140782;27;19908;-85
2021/01/30 08:17:49;;;;;;;;;;;0.90;99.90;;;;;;5140639;27;20267;-85
2021/01/30 08:20:20;;;;;;;;;;;1.00;99.90;;;;;;5103730;27;19907;-86
2021/01/30 08:22:55;;;;;;;;;;;1.00;99.90;;;;;;5139965;27;19907;-85
2021/01/30 08:25:37;;;;;;;;;;;1.00;99.90;;;;;;5140448;27;19907;-85
2021/01/30 08:28:15;;;;;;;;;;;1.10;99.90;;;;;;5140739;27;19950;-85
2021/01/30 08:30:46;;;;;;;;;;;1.10;99.90;;;;;;5140206;27;19907;-85
2021/01/30 08:33:17;;;;;;;;;;;1.10;99.90;;;;;;5139906;27;19908;-85
2021/01/30 08:35:52;;;;;;;;;;;1.10;99.90;;;;;;5137182;27;20002;-85
2021/01/30 08:38:23;;;;;;;;;;;1.10;99.90;;;;;;5139951;27;19914;-85
2021/01/30 08:40:56;;;;;;;;;;;1.10;99.90;;;;;;5139917;27;20350;-85
2021/01/30 08:43:34;;;;;;;;;;;1.10;99.90;;;;;;5134065;27;19934;-85
2021/01/30 08:46:19;;;;;;;;;;;1.20;99.90;;;;;;5128686;27;19930;-84
2021/01/30 08:48:45;;;;;;;;;;;1.20;99.90;;;;;;5134868;27;19907;-85
2021/01/30 08:51:20;;;;;;;;;;;1.20;99.90;;;;;;5138590;27;20260;-85
2021/01/30 08:53:45;;;;;;;;;;;1.30;99.90;;;;;;5134727;27;19911;-85
2021/01/30 08:56:31;;;;;;;;;;;1.40;99.90;;;;;;5129424;27;19911;-85
2021/01/30 08:58:56;;;;;;;;;;;1.60;99.90;;;;;;5131129;27;19907;-84
2021/01/30 09:01:22;;;;;;;;;;;1.70;99.90;;;;;;5127108;27;19915;-84
2021/01/30 09:03:55;;;;;;;;;;;1.80;99.90;;;;;;5130394;27;19919;-84
2021/01/30 09:06:39;;;;;;;;;;;1.90;99.90;;;;;;5131952;27;19972;-84
2021/01/30 09:09:16;;;;;;;;;;;2.00;99.90;;;;;;5157747;27;20417;-85
2021/01/30 09:11:46;;;;;;;;;;;2.30;99.90;;;;;;5138925;27;19911;-85
2021/01/30 09:14:37;;;;;;;;;;;2.80;99.90;;;;;;5138926;27;19911;-84
2021/01/30 09:17:17;;;;;;;;;;;3.00;99.90;;;;;;5129482;27;19915;-84
2021/01/30 09:20:09;;;;;;;;;;;3.00;99.90;;;;;;5101848;28;19955;-84
2021/01/30 09:22:55;;;;;;;;;;;2.80;99.90;;;;;;5092083;28;19912;-85
2021/01/30 09:25:26;;;;;;;;;;;2.70;99.90;;;;;;5095779;28;19920;-85
2021/01/30 09:27:52;;;;;;;;;;;2.60;99.90;;;;;;5095704;28;19916;-85
2021/01/30 09:30:20;;;;;;;;;;;2.50;99.90;;;;;;5098234;27;19973;-86
2021/01/30 09:32:48;;;;;;;;;;;2.40;99.90;;;;;;5131227;27;19942;-86
2021/01/30 09:35:21;;;;;;;;;;;2.40;99.90;;;;;;5096569;28;19969;-84
2021/01/30 09:37:53;;;;;;;;;;;2.30;99.90;;;;;;5113737;28;19915;-84
2021/01/30 09:40:26;;;;;;;;;;;2.30;99.90;;;;;;5096328;28;19935;-84
2021/01/30 09:43:22;;;;;;;;;;;2.40;99.90;;;;;;5096152;28;19908;-84
2021/01/30 09:45:54;;;;;;;;;;;2.60;99.90;;;;;;5113231;28;19907;-85
2021/01/30 09:48:25;;;;;;;;;;;2.80;99.90;;;;;;5096705;28;19985;-85
2021/01/30 09:50:59;;;;;;;;;;;2.80;99.90;;;;;;5116840;27;19907;-84
2021/01/30 09:53:29;;;;;;;;;;;2.80;99.90;;;;;;5154605;27;20264;-85
2021/01/30 09:56:17;;;;;;;;;;;2.80;99.90;;;;;;5154931;27;19911;-85
2021/01/30 09:58:47;;;;;;;;;;;2.90;99.90;;;;;;5133609;27;19957;-85
2021/01/30 10:01:23;;;;;;;;;;;3.00;99.90;;;;;;5128730;27;19906;-84
2021/01/30 10:03:49;;;;;;;;;;;3.10;99.90;;;;;;5132720;27;20009;-86
2021/01/30 10:06:17;;;;;;;;;;;3.20;99.90;;;;;;5117361;27;19962;-85
2021/01/30 10:08:46;;;;;;;;;;;3.20;99.80;;;;;;5114520;27;19911;-85
2021/01/30 10:11:13;;;;;;;;;;;3.20;99.90;;;;;;5114287;27;19916;-85
2021/01/30 10:13:44;;;;;;;;;;;3.10;99.50;;;;;;5134967;27;19915;-86
2021/01/30 10:16:13;;;;;;;;;;;3.00;99.90;;;;;;5117342;27;19950;-85
2021/01/30 10:18:59;;;;;;;;;;;2.90;99.90;;;;;;5132198;27;19915;-84
2021/01/30 10:21:35;;;;;;;;;;;2.70;99.90;;;;;;5116082;27;19907;-84
2021/01/30 10:24:18;;;;;;;;;;;2.70;99.90;;;;;;5116621;27;19908;-88
2021/01/30 10:26:45;;;;;;;;;;;2.80;99.90;;;;;;5117018;27;19932;-85
2021/01/30 10:29:11;;;;;;;;;;;3.00;99.90;;;;;;5123454;27;20374;-85
2021/01/30 10:31:42;;;;;;;;;;;3.10;99.90;;;;;;5135146;27;19912;-85
2021/01/30 10:34:26;;;;;;;;;;;3.30;99.90;;;;;;5135314;27;20370;-85
2021/01/30 10:36:59;;;;;;;;;;;3.60;99.60;;;;;;5135083;27;20365;-85
2021/01/30 10:39:30;;;;;;;;;;;3.90;98.40;;;;;;5131480;27;19912;-85
2021/01/30 10:41:59;;;;;;;;;;;4.00;97.40;;;;;;5135218;27;20436;-84
2021/01/30 10:44:30;;;;;;;;;;;4.10;97.10;;;;;;5134218;27;20359;-84
2021/01/30 10:47:00;;;;;;;;;;;4.00;96.70;;;;;;5134955;27;20014;-86
2021/01/30 10:49:46;;;;;;;;;;;3.80;96.50;;;;;;5117687;28;19915;-85
2021/01/30 10:52:25;;;;;;;;;;;3.60;96.40;;;;;;5112132;28;20402;-84
2021/01/30 10:54:53;;;;;;;;;;;3.60;97.20;;;;;;5095429;28;19908;-84
2021/01/30 10:57:19;;;;;;;;;;;3.60;97.40;;;;;;5115113;28;19945;-85
2021/01/30 11:00:33;;;;;;;;;;;3.70;97.80;;;;;;5099985;28;19915;-84
2021/01/30 11:03:21;;;;;;;;;;;3.90;97.00;;;;;;5039488;28;19923;-83
2021/01/30 11:05:49;;;;;;;;;;;4.00;96.70;;;;;;5051887;28;19948;-84
2021/01/30 11:08:29;;;;;;;;;;;4.20;96.30;;;;;;5090225;28;19920;-86
2021/01/30 11:11:05;;;;;;;;;;;4.30;96.00;;;;;;5111832;28;19916;-84
2021/01/30 11:13:40;;;;;;;;;;;4.40;95.20;;;;;;5095046;28;19938;-84
2021/01/30 11:16:26;;;;;;;;;;;4.30;95.30;;;;;;5096474;28;20367;-85
2021/01/30 11:18:57;;;;;;;;;;;4.10;95.30;;;;;;5125431;27;19907;-84
2021/01/30 11:21:34;;;;;;;;;;;3.80;95.80;;;;;;5133714;28;20264;-85
2021/01/30 11:24:23;;;;;;;;;;;3.80;96.20;;;;;;5136025;27;19914;-84
2021/01/30 11:26:52;;;;;;;;;;;3.70;96.40;;;;;;5136123;27;19916;-85
2021/01/30 11:29:32;;;;;;;;;;;3.70;96.40;;;;;;5143469;27;19915;-85
2021/01/30 11:32:05;;;;;;;;;;;3.70;96.50;;;;;;5152532;27;19965;-84
2021/01/30 11:34:34;;;;;;;;;;;3.70;96.60;;;;;;5137643;27;19911;-84
2021/01/30 11:37:02;;;;;;;;;;;3.70;96.70;;;;;;5152410;27;19910;-85
2021/01/30 11:39:30;;;;;;;;;;;3.70;96.90;;;;;;5153650;27;19908;-96
2021/01/30 11:42:03;;;;;;;;;;;3.70;96.60;;;;;;5137717;27;19954;-84
2021/01/30 11:44:35;;;;;;;;;;;3.70;96.60;;;;;;5138029;27;20322;-85
2021/01/30 11:47:00;;;;;;;;;;;3.60;96.50;;;;;;5137080;27;19912;-85
2021/01/30 11:49:29;;;;;;;;;;;3.60;96.90;;;;;;5137277;27;19913;-84
2021/01/30 11:51:57;;;;;;;;;;;3.70;97.20;;;;;;5137171;27;20364;-85
2021/01/30 11:54:25;;;;;;;;;;;3.70;97.50;;;;;;5137501;27;19907;-85
2021/01/30 11:56:56;;;;;;;;;;;3.70;97.70;;;;;;5138055;27;19911;-85
2021/01/30 11:59:37;;;;;;;;;;;3.80;97.80;;;;;;5137672;27;19907;-85
2021/01/30 12:02:07;;;;;;;;;;;3.80;97.80;;;;;;5137396;27;19915;-86
2021/01/30 12:05:04;;;;;;;;;;;3.80;97.60;;;;;;5141037;27;19908;-86
2021/01/30 12:07:43;;;;;;;;;;;3.80;97.50;;;;;;5144037;27;19919;-84
2021/01/30 12:10:11;;;;;;;;;;;3.70;97.00;;;;;;5147667;27;20398;-85
2021/01/30 12:12:49;;;;;;;;;;;3.70;97.00;;;;;;5145954;27;19964;-85
2021/01/30 12:15:20;;;;;;;;;;;3.60;97.40;;;;;;5148801;27;19907;-84
2021/01/30 12:17:49;;;;;;;;;;;3.60;97.30;;;;;;5143143;27;20028;-84
2021/01/30 12:20:22;;;;;;;;;;;3.60;97.50;;;;;;5135305;27;19907;-84
2021/01/30 12:22:48;;;;;;;;;;;3.60;97.50;;;;;;5133611;27;19915;-85
2021/01/30 12:25:17;;;;;;;;;;;3.50;97.50;;;;;;5133966;27;19907;-85
2021/01/30 12:27:53;;;;;;;;;;;3.50;97.50;;;;;;5159137;27;19915;-84
2021/01/30 12:30:24;;;;;;;;;;;3.50;97.40;;;;;;5158912;27;19911;-84
2021/01/30 12:32:53;;;;;;;;;;;3.60;97.70;;;;;;5139995;27;19915;-84
2021/01/30 12:35:23;;;;;;;;;;;3.60;97.10;;;;;;5139086;27;19911;-84
2021/01/30 12:37:53;;;;;;;;;;;3.60;97.10;;;;;;5139799;27;19911;-84
2021/01/30 12:40:23;;;;;;;;;;;3.60;97.60;;;;;;5158314;27;19914;-84
2021/01/30 12:42:54;;;;;;;;;;;3.60;97.90;;;;;;5139414;27;19918;-84
2021/01/30 12:45:25;;;;;;;;;;;3.70;98.00;;;;;;5137046;27;19917;-84
2021/01/30 12:47:51;;;;;;;;;;;3.70;98.10;;;;;;5139453;27;20335;-84
2021/01/30 12:50:28;;;;;;;;;;;3.70;97.90;;;;;;5157635;27;19954;-84
2021/01/30 12:52:53;;;;;;;;;;;3.70;98.30;;;;;;5136819;27;19919;-84
2021/01/30 12:55:22;;;;;;;;;;;3.80;98.40;;;;;;5140543;27;19907;-84
2021/01/30 12:57:48;;;;;;;;;;;3.80;98.20;;;;;;5140161;27;19908;-84
2021/01/30 13:00:35;;;;;;;;;;;3.80;98.00;;;;;;5158423;27;19908;-82
2021/01/30 13:03:04;;;;;;;;;;;3.80;98.10;;;;;;5139506;27;19907;-84
2021/01/30 13:05:34;;;;;;;;;;;3.80;98.20;;;;;;5139447;27;19914;-85
2021/01/30 13:08:06;;;;;;;;;;;3.80;97.70;;;;;;5158610;27;19919;-84
2021/01/30 13:10:33;;;;;;;;;;;3.80;97.20;;;;;;5142314;27;19915;-83
2021/01/30 13:13:07;;;;;;;;;;;3.80;97.40;;;;;;5160868;27;19922;-84
2021/01/30 13:15:35;;;;;;;;;;;3.80;97.40;;;;;;5157837;27;19922;-84
2021/01/30 13:18:04;;;;;;;;;;;3.80;97.30;;;;;;5140843;27;19907;-84
2021/01/30 13:20:35;;;;;;;;;;;3.70;97.50;;;;;;5158000;27;19946;-84
2021/01/30 13:23:11;;;;;;;;;;;3.60;97.50;;;;;;5138958;27;20002;-85
2021/01/30 13:25:38;;;;;;;;;;;3.60;97.90;;;;;;5138955;27;19907;-85
2021/01/30 13:28:04;;;;;;;;;;;3.50;98.30;;;;;;5139038;27;19907;-85
2021/01/30 13:30:32;;;;;;;;;;;3.50;98.40;;;;;;5135588;27;19933;-85
2021/01/30 13:33:06;;;;;;;;;;;3.40;98.50;;;;;;5153154;27;20002;-84
2021/01/30 13:35:36;;;;;;;;;;;3.40;98.50;;;;;;5137950;27;19911;-84
2021/01/30 13:38:04;;;;;;;;;;;3.40;98.40;;;;;;5137742;27;19918;-84
2021/01/30 13:40:39;;;;;;;;;;;3.30;98.20;;;;;;5145117;27;19907;-85
2021/01/30 13:43:06;;;;;;;;;;;3.20;98.00;;;;;;5107013;28;19916;-85
2021/01/30 13:45:37;;;;;;;;;;;3.10;98.00;;;;;;5098619;28;19912;-85
2021/01/30 13:48:08;;;;;;;;;;;3.00;98.40;;;;;;5094625;28;19908;-85
2021/01/30 13:50:57;;;;;;;;;;;3.00;98.50;;;;;;5097562;28;19908;-84
2021/01/30 13:53:26;;;;;;;;;;;3.00;98.70;;;;;;5096494;28;20019;-86
2021/01/30 13:55:54;;;;;;;;;;;2.90;98.60;;;;;;5097123;28;19908;-85
2021/01/30 13:58:30;;;;;;;;;;;2.90;98.90;;;;;;5097527;28;20395;-86
2021/01/30 14:01:12;;;;;;;;;;;2.80;99.10;;;;;;5123542;28;20352;-85
2021/01/30 14:03:44;;;;;;;;;;;2.80;99.20;;;;;;5117756;28;20007;-84
2021/01/30 14:06:19;;;;;;;;;;;2.80;99.20;;;;;;5116495;28;19980;-85
2021/01/30 14:08:50;;;;;;;;;;;2.80;99.30;;;;;;5111006;28;19969;-86
2021/01/30 14:11:23;;;;;;;;;;;2.80;99.60;;;;;;5097007;28;19911;-84
2021/01/30 14:13:51;;;;;;;;;;;2.80;99.60;;;;;;5123275;27;19943;-84
2021/01/30 14:16:26;;;;;;;;;;;2.70;99.80;;;;;;5117768;27;19911;-84
2021/01/30 14:18:55;;;;;;;;;;;2.80;99.90;;;;;;5115333;27;19908;-86
2021/01/30 14:21:25;;;;;;;;;;;2.70;99.90;;;;;;5119009;27;19907;-84
2021/01/30 14:23:59;;;;;;;;;;;2.70;99.90;;;;;;5133388;27;19907;-86
2021/01/30 14:26:25;;;;;;;;;;;2.70;99.90;;;;;;5117505;27;19907;-85
2021/01/30 14:28:54;;;;;;;;;;;2.60;99.90;;;;;;5075580;28;19970;-86
2021/01/30 14:31:25;;;;;;;;;;;2.60;99.90;;;;;;5092112;28;20376;-85
2021/01/30 14:33:55;;;;;;;;;;;2.60;99.90;;;;;;5092497;28;20018;-85
2021/01/30 14:36:21;;;;;;;;;;;2.60;99.90;;;;;;5073208;28;19912;-85
2021/01/30 14:38:59;;;;;;;;;;;2.60;99.90;;;;;;5042413;28;19965;-84
2021/01/30 14:41:34;;;;;;;;;;;2.70;99.90;;;;;;4996233;28;20318;-85
2021/01/30 14:44:02;;;;;;;;;;;2.60;99.90;;;;;;5012397;28;20053;-84
2021/01/30 14:46:35;;;;;;;;;;;2.60;99.90;;;;;;5012381;28;19910;-86
2021/01/30 14:49:01;;;;;;;;;;;2.60;99.90;;;;;;4995210;28;19964;-85
2021/01/30 14:51:26;;;;;;;;;;;2.60;99.90;;;;;;4995862;28;20318;-85
2021/01/30 14:53:55;;;;;;;;;;;2.60;99.90;;;;;;4996089;28;20322;-85
2021/01/30 14:56:31;;;;;;;;;;;2.50;99.90;;;;;;4999572;28;19940;-86
2021/01/30 14:59:17;;;;;;;;;;;2.50;99.90;;;;;;5008610;28;19913;-85
2021/01/30 15:01:49;;;;;;;;;;;2.50;99.90;;;;;;5006223;28;19961;-86
2021/01/30 15:04:23;;;;;;;;;;;2.50;99.90;;;;;;5006258;28;19913;-86
2021/01/30 15:06:55;;;;;;;;;;;2.40;99.90;;;;;;5023200;28;20428;-85
2021/01/30 15:09:25;;;;;;;;;;;2.40;99.90;;;;;;5025309;28;20405;-85
2021/01/30 15:12:08;;;;;;;;;;;2.40;99.90;;;;;;5011745;28;19956;-84
2021/01/30 15:14:42;;;;;;;;;;;2.40;99.90;;;;;;5042118;28;19979;-86